BOX3782 EHAM-LIMC
Flight info
| Callsign | BOX3782 |
|---|---|
| Flight time | 1h 29m |
| Altitude | 33000 |
| Route | EDUPO Z739 MISGO DCT ASBON DCT TUSUK DCT KRH DCT NATOR DCT TRA DCT RIPUS DCT GERSA DCT SOSON DCT DEGAD Z424 RIXUV |
| Aircraft | B77L/H-SDE1E2E3FGHIJ2J3J4J5M1RWXY/LB1D1 |
Departure
| Time | 2026-05-05 18:41 |
|---|---|
| Airport | Amsterdam Airport Schiphol (EHAM) |
Arrival
| Time | 2026-05-05 20:10 |
|---|---|
| Airport | Milan Malpensa International Airport (LIMC) |
| Time | Latitude | Longitude | Altitude | Speed | Heading |
|---|---|---|---|---|---|
| 2026-05-05 18:19 | 52.29438 | 4.76019 | 2 ft | 0 kts | 148° |
| 2026-05-05 18:29 | 52.29439 | 4.76019 | 1 ft | 2 kts | 148° |
| 2026-05-05 18:30 | 52.29453 | 4.76005 | 1 ft | 2 kts | 151° |
| 2026-05-05 18:30 | 52.29467 | 4.75992 | 1 ft | 2 kts | 153° |
| 2026-05-05 18:30 | 52.29482 | 4.75980 | 4 ft | 2 kts | 157° |
| 2026-05-05 18:30 | 52.29497 | 4.75971 | 3 ft | 2 kts | 164° |
| 2026-05-05 18:31 | 52.29513 | 4.75965 | 1 ft | 2 kts | 176° |
| 2026-05-05 18:31 | 52.29530 | 4.75967 | 3 ft | 2 kts | 210° |
| 2026-05-05 18:31 | 52.29541 | 4.75982 | 4 ft | 1 kts | 238° |
| 2026-05-05 18:31 | 52.29543 | 4.75986 | 4 ft | 0 kts | 240° |
| 2026-05-05 18:33 | 52.29517 | 4.75890 | 1 ft | 23 kts | 254° |
| 2026-05-05 18:33 | 52.29460 | 4.75689 | 1 ft | 14 kts | 241° |
| 2026-05-05 18:34 | 52.29454 | 4.75670 | 1 ft | 0 kts | 241° |
| 2026-05-05 18:34 | 52.29440 | 4.75592 | 0 ft | 18 kts | 275° |
| 2026-05-05 18:34 | 52.29532 | 4.75454 | 0 ft | 18 kts | 326° |
| 2026-05-05 18:35 | 52.29656 | 4.75326 | 3 ft | 23 kts | 328° |
| 2026-05-05 18:35 | 52.29806 | 4.75247 | 2 ft | 23 kts | 330° |
| 2026-05-05 18:35 | 52.29915 | 4.75057 | 2 ft | 23 kts | 311° |
| 2026-05-05 18:35 | 52.30020 | 4.74862 | 2 ft | 23 kts | 310° |
| 2026-05-05 18:36 | 52.30126 | 4.74663 | 2 ft | 23 kts | 311° |
| 2026-05-05 18:36 | 52.30232 | 4.74469 | 2 ft | 23 kts | 312° |
| 2026-05-05 18:36 | 52.30328 | 4.74281 | 2 ft | 18 kts | 304° |
| 2026-05-05 18:36 | 52.30367 | 4.74103 | 3 ft | 18 kts | 250° |
| 2026-05-05 18:37 | 52.30286 | 4.73998 | 2 ft | 0 kts | 217° |
| 2026-05-05 18:37 | 52.30247 | 4.73950 | 2 ft | 16 kts | 217° |
| 2026-05-05 18:38 | 52.30209 | 4.73900 | 1 ft | 0 kts | 223° |
| 2026-05-05 18:38 | 52.30191 | 4.73833 | 1 ft | 14 kts | 264° |
| 2026-05-05 18:39 | 52.30249 | 4.73734 | -2 ft | 13 kts | 358° |
| 2026-05-05 18:39 | 52.30275 | 4.73738 | -3 ft | 0 kts | 5° |
| 2026-05-05 18:40 | 52.30314 | 4.73744 | -3 ft | 19 kts | 4° |
| 2026-05-05 18:40 | 52.30689 | 4.73779 | 2 ft | 90 kts | 3° |
| 2026-05-05 18:40 | 52.31542 | 4.73857 | 0 ft | 154 kts | 3° |
| 2026-05-05 18:40 | 52.32672 | 4.73949 | 466 ft | 164 kts | 5° |
| 2026-05-05 18:41 | 52.33794 | 4.74123 | 1281 ft | 157 kts | 14° |
| 2026-05-05 18:41 | 52.34865 | 4.74752 | 1618 ft | 173 kts | 24° |
| 2026-05-05 18:41 | 52.36043 | 4.75601 | 1854 ft | 197 kts | 24° |
| 2026-05-05 18:41 | 52.37381 | 4.76577 | 2053 ft | 223 kts | 27° |
| 2026-05-05 18:42 | 52.38608 | 4.78167 | 2562 ft | 229 kts | 46° |
| 2026-05-05 18:42 | 52.39711 | 4.80126 | 3207 ft | 238 kts | 45° |
| 2026-05-05 18:42 | 52.40873 | 4.82081 | 3949 ft | 242 kts | 45° |
| 2026-05-05 18:42 | 52.41968 | 4.84184 | 4620 ft | 247 kts | 60° |
| 2026-05-05 18:43 | 52.42390 | 4.86947 | 5271 ft | 256 kts | 85° |
| 2026-05-05 18:43 | 52.42399 | 4.89916 | 5847 ft | 265 kts | 88° |
| 2026-05-05 18:43 | 52.42407 | 4.92988 | 6476 ft | 273 kts | 86° |
| 2026-05-05 18:43 | 52.42398 | 4.96104 | 7190 ft | 274 kts | 92° |
| 2026-05-05 18:44 | 52.41827 | 4.99114 | 7643 ft | 285 kts | 126° |
| 2026-05-05 18:44 | 52.40392 | 5.01310 | 8345 ft | 284 kts | 145° |
| 2026-05-05 18:44 | 52.38742 | 5.03171 | 8925 ft | 292 kts | 145° |
| 2026-05-05 18:44 | 52.37082 | 5.05074 | 9754 ft | 290 kts | 145° |
| 2026-05-05 18:45 | 52.35421 | 5.06985 | 10385 ft | 297 kts | 145° |
| 2026-05-05 18:45 | 52.33673 | 5.09007 | 10596 ft | 319 kts | 143° |
| 2026-05-05 18:45 | 52.31979 | 5.11525 | 10763 ft | 341 kts | 133° |
| 2026-05-05 18:45 | 52.30371 | 5.14562 | 10952 ft | 366 kts | 130° |
| 2026-05-05 18:46 | 52.28702 | 5.17801 | 11482 ft | 377 kts | 130° |
| 2026-05-05 18:46 | 52.26963 | 5.21058 | 12288 ft | 383 kts | 131° |
| 2026-05-05 18:46 | 52.25172 | 5.24329 | 13129 ft | 389 kts | 132° |
| 2026-05-05 18:46 | 52.23416 | 5.27647 | 13955 ft | 394 kts | 128° |
| 2026-05-05 18:47 | 52.21771 | 5.31305 | 14808 ft | 396 kts | 125° |
| 2026-05-05 18:47 | 52.20212 | 5.35023 | 15637 ft | 399 kts | 124° |
| 2026-05-05 18:47 | 52.18669 | 5.38728 | 16398 ft | 402 kts | 124° |
| 2026-05-05 18:47 | 52.17052 | 5.42556 | 17188 ft | 406 kts | 125° |
| 2026-05-05 18:48 | 52.15428 | 5.46341 | 18018 ft | 408 kts | 124° |
| 2026-05-05 18:48 | 52.13819 | 5.50050 | 18907 ft | 406 kts | 126° |
| 2026-05-05 18:48 | 52.12174 | 5.53818 | 19545 ft | 410 kts | 126° |
| 2026-05-05 18:48 | 52.10508 | 5.57620 | 20111 ft | 417 kts | 126° |
| 2026-05-05 18:49 | 52.08787 | 5.61546 | 20614 ft | 424 kts | 127° |
| 2026-05-05 18:49 | 52.07064 | 5.65469 | 21249 ft | 428 kts | 127° |
| 2026-05-05 18:49 | 52.05294 | 5.69371 | 21874 ft | 431 kts | 130° |
| 2026-05-05 18:49 | 52.03341 | 5.73090 | 22482 ft | 434 kts | 134° |
| 2026-05-05 18:50 | 52.01308 | 5.76747 | 23097 ft | 438 kts | 134° |
| 2026-05-05 18:50 | 51.99277 | 5.80456 | 23649 ft | 442 kts | 133° |
| 2026-05-05 18:50 | 51.97277 | 5.84175 | 24186 ft | 444 kts | 133° |
| 2026-05-05 18:50 | 51.95246 | 5.87971 | 24725 ft | 446 kts | 133° |
| 2026-05-05 18:51 | 51.93214 | 5.91760 | 25346 ft | 446 kts | 133° |
| 2026-05-05 18:51 | 51.91169 | 5.95567 | 25873 ft | 449 kts | 133° |
| 2026-05-05 18:51 | 51.89111 | 5.99390 | 26342 ft | 453 kts | 133° |
| 2026-05-05 18:51 | 51.87038 | 6.03233 | 26868 ft | 454 kts | 133° |
| 2026-05-05 18:52 | 51.84950 | 6.07095 | 27396 ft | 456 kts | 133° |
| 2026-05-05 18:52 | 51.82849 | 6.10952 | 27893 ft | 459 kts | 133° |
| 2026-05-05 18:52 | 51.80729 | 6.14824 | 28346 ft | 462 kts | 133° |
| 2026-05-05 18:52 | 51.78593 | 6.18724 | 28777 ft | 465 kts | 133° |
| 2026-05-05 18:53 | 51.76449 | 6.22634 | 29205 ft | 467 kts | 133° |
| 2026-05-05 18:53 | 51.74292 | 6.26571 | 29628 ft | 469 kts | 133° |
| 2026-05-05 18:53 | 51.72127 | 6.30523 | 30042 ft | 470 kts | 133° |
| 2026-05-05 18:53 | 51.69965 | 6.34468 | 30475 ft | 469 kts | 133° |
| 2026-05-05 18:54 | 51.67810 | 6.38395 | 31022 ft | 465 kts | 134° |
| 2026-05-05 18:54 | 51.65676 | 6.42277 | 31623 ft | 461 kts | 134° |
| 2026-05-05 18:54 | 51.63557 | 6.46122 | 32171 ft | 457 kts | 134° |
| 2026-05-05 18:54 | 51.61452 | 6.49933 | 32754 ft | 453 kts | 134° |
| 2026-05-05 18:55 | 51.59367 | 6.53703 | 33303 ft | 449 kts | 134° |
| 2026-05-05 18:55 | 51.57295 | 6.57447 | 33759 ft | 447 kts | 134° |
| 2026-05-05 18:55 | 51.55229 | 6.61172 | 34077 ft | 447 kts | 134° |
| 2026-05-05 18:55 | 51.53151 | 6.64916 | 34277 ft | 450 kts | 134° |
| 2026-05-05 18:56 | 51.51063 | 6.68672 | 34463 ft | 452 kts | 134° |
| 2026-05-05 18:56 | 51.48971 | 6.72432 | 34775 ft | 451 kts | 134° |
| 2026-05-05 18:56 | 51.44840 | 6.79846 | 34867 ft | 437 kts | 135° |
| 2026-05-05 18:57 | 51.40665 | 6.86775 | 34863 ft | 429 kts | 142° |
| 2026-05-05 18:57 | 51.35874 | 6.92357 | 34860 ft | 424 kts | 149° |
| 2026-05-05 18:58 | 51.30859 | 6.97337 | 34825 ft | 424 kts | 149° |
| 2026-05-05 18:58 | 51.25854 | 7.02328 | 34826 ft | 424 kts | 149° |
| 2026-05-05 18:59 | 51.21692 | 7.06488 | 34838 ft | 425 kts | 149° |
| 2026-05-05 18:59 | 51.16679 | 7.11498 | 34838 ft | 426 kts | 149° |
| 2026-05-05 19:00 | 51.11654 | 7.16510 | 34833 ft | 426 kts | 149° |
| 2026-05-05 19:00 | 51.06623 | 7.21509 | 34833 ft | 427 kts | 149° |
| 2026-05-05 19:01 | 51.01582 | 7.26507 | 34835 ft | 427 kts | 149° |
| 2026-05-05 19:01 | 50.96532 | 7.31502 | 34824 ft | 428 kts | 149° |
| 2026-05-05 19:02 | 50.91478 | 7.36489 | 34829 ft | 428 kts | 149° |
| 2026-05-05 19:02 | 50.86419 | 7.41466 | 34827 ft | 428 kts | 149° |
| 2026-05-05 19:03 | 50.81361 | 7.46432 | 34824 ft | 428 kts | 149° |
| 2026-05-05 19:03 | 50.76304 | 7.51384 | 34800 ft | 427 kts | 149° |
| 2026-05-05 19:04 | 50.71255 | 7.56333 | 34812 ft | 427 kts | 148° |
| 2026-05-05 19:04 | 50.66284 | 7.61459 | 34811 ft | 427 kts | 147° |
| 2026-05-05 19:05 | 50.61334 | 7.66631 | 34818 ft | 427 kts | 147° |
| 2026-05-05 19:05 | 50.56370 | 7.71778 | 34817 ft | 427 kts | 147° |
| 2026-05-05 19:06 | 50.51379 | 7.76921 | 34825 ft | 434 kts | 147° |
| 2026-05-05 19:06 | 50.46233 | 7.82203 | 34837 ft | 449 kts | 147° |
| 2026-05-05 19:07 | 50.40984 | 7.87578 | 34826 ft | 451 kts | 147° |
| 2026-05-05 19:07 | 50.35743 | 7.92934 | 34813 ft | 449 kts | 147° |
| 2026-05-05 19:08 | 50.30512 | 7.98262 | 34821 ft | 448 kts | 147° |
| 2026-05-05 19:08 | 50.25288 | 8.03571 | 34832 ft | 448 kts | 147° |
| 2026-05-05 19:09 | 50.20052 | 8.08879 | 34839 ft | 449 kts | 147° |
| 2026-05-05 19:09 | 50.14500 | 8.13246 | 34841 ft | 449 kts | 162° |
| 2026-05-05 19:10 | 50.08379 | 8.15149 | 34850 ft | 451 kts | 174° |
| 2026-05-05 19:10 | 50.02096 | 8.15880 | 34854 ft | 453 kts | 175° |
| 2026-05-05 19:11 | 49.95796 | 8.16598 | 34851 ft | 455 kts | 174° |
| 2026-05-05 19:11 | 49.89518 | 8.17354 | 34827 ft | 456 kts | 174° |
| 2026-05-05 19:12 | 49.83180 | 8.18139 | 34810 ft | 457 kts | 174° |
| 2026-05-05 19:12 | 49.76834 | 8.18931 | 34819 ft | 458 kts | 174° |
| 2026-05-05 19:13 | 49.70484 | 8.19720 | 34823 ft | 458 kts | 174° |
| 2026-05-05 19:13 | 49.64129 | 8.20507 | 34826 ft | 458 kts | 175° |
| 2026-05-05 19:14 | 49.57774 | 8.21291 | 34817 ft | 458 kts | 175° |
| 2026-05-05 19:14 | 49.51415 | 8.22073 | 34819 ft | 458 kts | 175° |
| 2026-05-05 19:15 | 49.45069 | 8.22853 | 34822 ft | 458 kts | 175° |
| 2026-05-05 19:15 | 49.38710 | 8.23632 | 34826 ft | 458 kts | 175° |
| 2026-05-05 19:16 | 49.32359 | 8.24408 | 34816 ft | 458 kts | 175° |
| 2026-05-05 19:16 | 49.26012 | 8.25181 | 34820 ft | 457 kts | 175° |
| 2026-05-05 19:17 | 49.19667 | 8.25953 | 34826 ft | 457 kts | 175° |
| 2026-05-05 19:17 | 49.13333 | 8.26720 | 34828 ft | 457 kts | 175° |
| 2026-05-05 19:18 | 49.06979 | 8.27488 | 34828 ft | 457 kts | 175° |
| 2026-05-05 19:18 | 49.00636 | 8.28253 | 34839 ft | 457 kts | 176° |
| 2026-05-05 19:19 | 48.94286 | 8.29016 | 34830 ft | 458 kts | 176° |
| 2026-05-05 19:19 | 48.87936 | 8.29778 | 34831 ft | 458 kts | 176° |
| 2026-05-05 19:20 | 48.81581 | 8.30538 | 34827 ft | 458 kts | 176° |
| 2026-05-05 19:20 | 48.75219 | 8.31299 | 34828 ft | 459 kts | 176° |
| 2026-05-05 19:21 | 48.68851 | 8.32057 | 34832 ft | 459 kts | 176° |
| 2026-05-05 19:21 | 48.62478 | 8.32813 | 34828 ft | 460 kts | 176° |
| 2026-05-05 19:22 | 48.56098 | 8.33569 | 34846 ft | 460 kts | 176° |
| 2026-05-05 19:22 | 48.49715 | 8.34323 | 34845 ft | 460 kts | 176° |
| 2026-05-05 19:23 | 48.43332 | 8.35076 | 34853 ft | 460 kts | 177° |
| 2026-05-05 19:23 | 48.36953 | 8.35825 | 34848 ft | 460 kts | 176° |
| 2026-05-05 19:24 | 48.30572 | 8.36574 | 34852 ft | 460 kts | 177° |
| 2026-05-05 19:24 | 48.24193 | 8.37320 | 34864 ft | 460 kts | 177° |
| 2026-05-05 19:25 | 48.17812 | 8.38064 | 34864 ft | 459 kts | 177° |
| 2026-05-05 19:25 | 48.11458 | 8.38804 | 34873 ft | 459 kts | 177° |
| 2026-05-05 19:26 | 48.05124 | 8.39540 | 34875 ft | 460 kts | 177° |
| 2026-05-05 19:26 | 47.98747 | 8.40278 | 34875 ft | 460 kts | 177° |
| 2026-05-05 19:27 | 47.92366 | 8.41015 | 34873 ft | 460 kts | 177° |
| 2026-05-05 19:27 | 47.85984 | 8.41750 | 34885 ft | 460 kts | 178° |
| 2026-05-05 19:28 | 47.79598 | 8.42485 | 34880 ft | 460 kts | 178° |
| 2026-05-05 19:28 | 47.73212 | 8.43218 | 34872 ft | 460 kts | 178° |
| 2026-05-05 19:29 | 47.66836 | 8.43973 | 34890 ft | 459 kts | 178° |
| 2026-05-05 19:29 | 47.60488 | 8.44909 | 34903 ft | 458 kts | 177° |
| 2026-05-05 19:30 | 47.54111 | 8.45883 | 34909 ft | 457 kts | 177° |
| 2026-05-05 19:30 | 47.47832 | 8.46816 | 34905 ft | 456 kts | 178° |
| 2026-05-05 19:31 | 47.41526 | 8.47738 | 34913 ft | 455 kts | 178° |
| 2026-05-05 19:31 | 47.35219 | 8.48657 | 34912 ft | 455 kts | 178° |
| 2026-05-05 19:32 | 47.28911 | 8.49576 | 34891 ft | 456 kts | 178° |
| 2026-05-05 19:32 | 47.22630 | 8.50489 | 34894 ft | 456 kts | 178° |
| 2026-05-05 19:33 | 47.16322 | 8.51404 | 34901 ft | 456 kts | 178° |
| 2026-05-05 19:33 | 47.10013 | 8.52317 | 34927 ft | 456 kts | 178° |
| 2026-05-05 19:34 | 47.03699 | 8.53229 | 34918 ft | 456 kts | 179° |
| 2026-05-05 19:35 | 46.94270 | 8.54591 | 34924 ft | 453 kts | 179° |
| 2026-05-05 19:35 | 46.88005 | 8.55492 | 34934 ft | 452 kts | 179° |
| 2026-05-05 19:36 | 46.81757 | 8.56391 | 34919 ft | 451 kts | 179° |
| 2026-05-05 19:36 | 46.78583 | 8.56844 | 34095 ft | 463 kts | 179° |
| 2026-05-05 19:36 | 46.75394 | 8.57303 | 33372 ft | 456 kts | 180° |
| 2026-05-05 19:36 | 46.72268 | 8.57753 | 32453 ft | 447 kts | 180° |
| 2026-05-05 19:37 | 46.69167 | 8.58194 | 31569 ft | 448 kts | 179° |
| 2026-05-05 19:37 | 46.66066 | 8.58633 | 30761 ft | 448 kts | 179° |
| 2026-05-05 19:37 | 46.62977 | 8.59075 | 30125 ft | 444 kts | 180° |
| 2026-05-05 19:37 | 46.59916 | 8.59513 | 29420 ft | 440 kts | 180° |
| 2026-05-05 19:38 | 46.56883 | 8.59941 | 28784 ft | 435 kts | 179° |
| 2026-05-05 19:38 | 46.53885 | 8.60362 | 28161 ft | 431 kts | 179° |
| 2026-05-05 19:38 | 46.50918 | 8.60778 | 27564 ft | 426 kts | 179° |
| 2026-05-05 19:38 | 46.47982 | 8.61171 | 26980 ft | 418 kts | 181° |
| 2026-05-05 19:39 | 46.45124 | 8.60959 | 26401 ft | 404 kts | 192° |
| 2026-05-05 19:39 | 46.42328 | 8.60535 | 25624 ft | 408 kts | 185° |
| 2026-05-05 19:39 | 46.39477 | 8.60577 | 24866 ft | 411 kts | 182° |
| 2026-05-05 19:39 | 46.36613 | 8.60699 | 24199 ft | 411 kts | 182° |
| 2026-05-05 19:40 | 46.33759 | 8.60797 | 23650 ft | 409 kts | 182° |
| 2026-05-05 19:40 | 46.30928 | 8.60858 | 23094 ft | 405 kts | 183° |
| 2026-05-05 19:40 | 46.28135 | 8.60893 | 22429 ft | 402 kts | 183° |
| 2026-05-05 19:40 | 46.25345 | 8.60913 | 21732 ft | 399 kts | 183° |
| 2026-05-05 19:41 | 46.22574 | 8.60915 | 21380 ft | 400 kts | 183° |
| 2026-05-05 19:41 | 46.19785 | 8.60915 | 20900 ft | 404 kts | 182° |
| 2026-05-05 19:41 | 46.16953 | 8.60927 | 20099 ft | 409 kts | 182° |
| 2026-05-05 19:41 | 46.14121 | 8.61179 | 19594 ft | 407 kts | 176° |
| 2026-05-05 19:42 | 46.11379 | 8.61856 | 19052 ft | 393 kts | 171° |
| 2026-05-05 19:42 | 46.08739 | 8.62920 | 18445 ft | 398 kts | 167° |
| 2026-05-05 19:42 | 46.06989 | 8.63688 | 18298 ft | 396 kts | 167° |
| 2026-05-05 19:42 | 46.03478 | 8.65176 | 18027 ft | 387 kts | 167° |
| 2026-05-05 19:43 | 46.01783 | 8.65884 | 17942 ft | 378 kts | 167° |
| 2026-05-05 19:43 | 45.99318 | 8.66914 | 17838 ft | 357 kts | 167° |
| 2026-05-05 19:43 | 45.97002 | 8.67882 | 17680 ft | 336 kts | 168° |
| 2026-05-05 19:43 | 45.94819 | 8.68793 | 17428 ft | 319 kts | 168° |
| 2026-05-05 19:44 | 45.92727 | 8.69662 | 17032 ft | 308 kts | 168° |
| 2026-05-05 19:44 | 45.90686 | 8.70505 | 16457 ft | 303 kts | 168° |
| 2026-05-05 19:44 | 45.88665 | 8.71340 | 15801 ft | 302 kts | 168° |
| 2026-05-05 19:44 | 45.86652 | 8.72171 | 15271 ft | 299 kts | 168° |
| 2026-05-05 19:45 | 45.84615 | 8.73012 | 15155 ft | 309 kts | 167° |
| 2026-05-05 19:45 | 45.82539 | 8.73873 | 14991 ft | 310 kts | 167° |
| 2026-05-05 19:45 | 45.80489 | 8.74724 | 14810 ft | 305 kts | 167° |
| 2026-05-05 19:45 | 45.78469 | 8.75561 | 14536 ft | 300 kts | 167° |
| 2026-05-05 19:46 | 45.76474 | 8.76400 | 14149 ft | 298 kts | 165° |
| 2026-05-05 19:46 | 45.74562 | 8.77601 | 13674 ft | 303 kts | 155° |
| 2026-05-05 19:46 | 45.72724 | 8.79068 | 13250 ft | 302 kts | 154° |
| 2026-05-05 19:46 | 45.70914 | 8.80552 | 12886 ft | 298 kts | 154° |
| 2026-05-05 19:47 | 45.69112 | 8.82000 | 12533 ft | 296 kts | 154° |
| 2026-05-05 19:47 | 45.67314 | 8.83411 | 12151 ft | 294 kts | 154° |
| 2026-05-05 19:47 | 45.65519 | 8.84798 | 11773 ft | 292 kts | 155° |
| 2026-05-05 19:47 | 45.63738 | 8.86168 | 11408 ft | 290 kts | 154° |
| 2026-05-05 19:48 | 45.61962 | 8.87511 | 11030 ft | 286 kts | 158° |
| 2026-05-05 19:48 | 45.60088 | 8.88354 | 10570 ft | 283 kts | 171° |
| 2026-05-05 19:48 | 45.58153 | 8.88818 | 10192 ft | 281 kts | 173° |
| 2026-05-05 19:48 | 45.56229 | 8.89262 | 9850 ft | 279 kts | 172° |
| 2026-05-05 19:49 | 45.54327 | 8.89740 | 9483 ft | 277 kts | 171° |
| 2026-05-05 19:49 | 45.52482 | 8.90228 | 9294 ft | 269 kts | 171° |
| 2026-05-05 19:49 | 45.50675 | 8.90714 | 9109 ft | 260 kts | 171° |
| 2026-05-05 19:49 | 45.48895 | 8.91195 | 8882 ft | 253 kts | 171° |
| 2026-05-05 19:50 | 45.47197 | 8.91655 | 8551 ft | 251 kts | 171° |
| 2026-05-05 19:50 | 45.45461 | 8.92126 | 8186 ft | 250 kts | 171° |
| 2026-05-05 19:50 | 45.43776 | 8.92584 | 7826 ft | 250 kts | 171° |
| 2026-05-05 19:50 | 45.42075 | 8.93046 | 7478 ft | 248 kts | 171° |
| 2026-05-05 19:51 | 45.40387 | 8.93504 | 7166 ft | 246 kts | 171° |
| 2026-05-05 19:51 | 45.38706 | 8.93959 | 6807 ft | 245 kts | 171° |
| 2026-05-05 19:51 | 45.37048 | 8.94408 | 6593 ft | 238 kts | 171° |
| 2026-05-05 19:51 | 45.35469 | 8.94839 | 6488 ft | 225 kts | 171° |
| 2026-05-05 19:52 | 45.33979 | 8.95243 | 6366 ft | 212 kts | 171° |
| 2026-05-05 19:52 | 45.32552 | 8.95628 | 6068 ft | 206 kts | 171° |
| 2026-05-05 19:52 | 45.31187 | 8.95998 | 6006 ft | 197 kts | 171° |
| 2026-05-05 19:52 | 45.29817 | 8.96367 | 6007 ft | 205 kts | 171° |
| 2026-05-05 19:53 | 45.28391 | 8.96754 | 6000 ft | 211 kts | 171° |
| 2026-05-05 19:53 | 45.26947 | 8.97146 | 5982 ft | 211 kts | 171° |
| 2026-05-05 19:53 | 45.25513 | 8.97535 | 5965 ft | 209 kts | 171° |
| 2026-05-05 19:53 | 45.24093 | 8.97921 | 5963 ft | 207 kts | 171° |
| 2026-05-05 19:54 | 45.22688 | 8.98302 | 5961 ft | 205 kts | 171° |
| 2026-05-05 19:54 | 45.21295 | 8.98676 | 5961 ft | 203 kts | 171° |
| 2026-05-05 19:54 | 45.19908 | 8.99048 | 5963 ft | 203 kts | 171° |
| 2026-05-05 19:54 | 45.18503 | 8.99423 | 5977 ft | 208 kts | 171° |
| 2026-05-05 19:55 | 45.17071 | 8.99806 | 5985 ft | 211 kts | 171° |
| 2026-05-05 19:55 | 45.15632 | 9.00191 | 5976 ft | 210 kts | 171° |
| 2026-05-05 19:55 | 45.14198 | 9.00570 | 5965 ft | 209 kts | 171° |
| 2026-05-05 19:55 | 45.12770 | 9.00941 | 5953 ft | 208 kts | 171° |
| 2026-05-05 19:56 | 45.11353 | 9.01304 | 5964 ft | 206 kts | 171° |
| 2026-05-05 19:56 | 45.09941 | 9.01661 | 5960 ft | 205 kts | 171° |
| 2026-05-05 19:56 | 45.08537 | 9.02018 | 5958 ft | 205 kts | 171° |
| 2026-05-05 19:56 | 45.07138 | 9.02376 | 5970 ft | 204 kts | 171° |
| 2026-05-05 19:57 | 45.05741 | 9.02735 | 5969 ft | 205 kts | 171° |
| 2026-05-05 19:57 | 45.04336 | 9.03096 | 5975 ft | 205 kts | 171° |
| 2026-05-05 19:57 | 45.02928 | 9.03245 | 5949 ft | 202 kts | 193° |
| 2026-05-05 19:57 | 45.01734 | 9.02304 | 5968 ft | 200 kts | 229° |
| 2026-05-05 19:58 | 45.01191 | 9.00509 | 5965 ft | 205 kts | 263° |
| 2026-05-05 19:58 | 45.01252 | 8.98451 | 5990 ft | 215 kts | 272° |
| 2026-05-05 19:58 | 45.01554 | 8.96374 | 5958 ft | 221 kts | 294° |
| 2026-05-05 19:58 | 45.02670 | 8.94900 | 5972 ft | 228 kts | 338° |
| 2026-05-05 19:59 | 45.04221 | 8.94478 | 6001 ft | 227 kts | 349° |
| 2026-05-05 19:59 | 45.05783 | 8.94008 | 5975 ft | 230 kts | 337° |
| 2026-05-05 19:59 | 45.07053 | 8.92724 | 5978 ft | 224 kts | 302° |
| 2026-05-05 19:59 | 45.07715 | 8.90767 | 5982 ft | 222 kts | 285° |
| 2026-05-05 20:00 | 45.08191 | 8.88675 | 5977 ft | 222 kts | 284° |
| 2026-05-05 20:00 | 45.08643 | 8.86602 | 5957 ft | 219 kts | 284° |
| 2026-05-05 20:00 | 45.09085 | 8.84562 | 5973 ft | 216 kts | 284° |
| 2026-05-05 20:00 | 45.09737 | 8.82671 | 5958 ft | 219 kts | 315° |
| 2026-05-05 20:01 | 45.11103 | 8.81781 | 5980 ft | 224 kts | 355° |
| 2026-05-05 20:01 | 45.12688 | 8.81709 | 6001 ft | 232 kts | 357° |
| 2026-05-05 20:01 | 45.14304 | 8.81614 | 5977 ft | 232 kts | 356° |
| 2026-05-05 20:01 | 45.15902 | 8.81500 | 5965 ft | 228 kts | 356° |
| 2026-05-05 20:02 | 45.17471 | 8.81374 | 5969 ft | 226 kts | 356° |
| 2026-05-05 20:02 | 45.19045 | 8.81237 | 5979 ft | 227 kts | 355° |
| 2026-05-05 20:02 | 45.20618 | 8.81093 | 5893 ft | 226 kts | 355° |
| 2026-05-05 20:02 | 45.22191 | 8.80942 | 5711 ft | 227 kts | 355° |
| 2026-05-05 20:03 | 45.23761 | 8.80787 | 5559 ft | 227 kts | 355° |
| 2026-05-05 20:03 | 45.25329 | 8.80629 | 5432 ft | 225 kts | 355° |
| 2026-05-05 20:03 | 45.26886 | 8.80469 | 5277 ft | 224 kts | 355° |
| 2026-05-05 20:03 | 45.28420 | 8.80310 | 5115 ft | 224 kts | 355° |
| 2026-05-05 20:04 | 45.29973 | 8.80148 | 4978 ft | 223 kts | 355° |
| 2026-05-05 20:04 | 45.31517 | 8.79986 | 4834 ft | 222 kts | 355° |
| 2026-05-05 20:04 | 45.33058 | 8.79824 | 4686 ft | 222 kts | 355° |
| 2026-05-05 20:04 | 45.34591 | 8.79662 | 4548 ft | 221 kts | 355° |
| 2026-05-05 20:05 | 45.36121 | 8.79500 | 4400 ft | 220 kts | 355° |
| 2026-05-05 20:05 | 45.37628 | 8.79340 | 4276 ft | 215 kts | 355° |
| 2026-05-05 20:05 | 45.39122 | 8.79182 | 4071 ft | 215 kts | 356° |
| 2026-05-05 20:05 | 45.40618 | 8.79023 | 4047 ft | 217 kts | 356° |
| 2026-05-05 20:06 | 45.42129 | 8.78886 | 4003 ft | 218 kts | 355° |
| 2026-05-05 20:06 | 45.43605 | 8.78650 | 3978 ft | 206 kts | 351° |
| 2026-05-05 20:06 | 45.44952 | 8.78321 | 3971 ft | 187 kts | 349° |
| 2026-05-05 20:06 | 45.46227 | 8.77977 | 3818 ft | 187 kts | 349° |
| 2026-05-05 20:07 | 45.47499 | 8.77627 | 3563 ft | 185 kts | 349° |
| 2026-05-05 20:07 | 45.48752 | 8.77282 | 3325 ft | 182 kts | 350° |
| 2026-05-05 20:07 | 45.49996 | 8.76940 | 3088 ft | 182 kts | 350° |
| 2026-05-05 20:07 | 45.51237 | 8.76598 | 2837 ft | 182 kts | 350° |
| 2026-05-05 20:08 | 45.52478 | 8.76256 | 2589 ft | 182 kts | 351° |
| 2026-05-05 20:08 | 45.53717 | 8.75916 | 2360 ft | 180 kts | 351° |
| 2026-05-05 20:08 | 45.54906 | 8.75586 | 2087 ft | 168 kts | 351° |
| 2026-05-05 20:08 | 45.56014 | 8.75280 | 1832 ft | 159 kts | 352° |
| 2026-05-05 20:09 | 45.57076 | 8.74992 | 1619 ft | 154 kts | 350° |
| 2026-05-05 20:09 | 45.58136 | 8.74695 | 1445 ft | 155 kts | 350° |
| 2026-05-05 20:09 | 45.59189 | 8.74405 | 1240 ft | 154 kts | 349° |
| 2026-05-05 20:09 | 45.60230 | 8.74118 | 1019 ft | 150 kts | 349° |
| 2026-05-05 20:10 | 45.61252 | 8.73836 | 808 ft | 150 kts | 348° |
| 2026-05-05 20:10 | 45.62256 | 8.73558 | 727 ft | 138 kts | 349° |
| 2026-05-05 20:10 | 45.63038 | 8.73345 | 736 ft | 90 kts | 349° |
| 2026-05-05 20:10 | 45.63521 | 8.73210 | 748 ft | 45 kts | 347° |
| 2026-05-05 20:11 | 45.63760 | 8.73014 | 752 ft | 34 kts | 315° |
| 2026-05-05 20:11 | 45.63880 | 8.72784 | 755 ft | 24 kts | 304° |
| 2026-05-05 20:11 | 45.63889 | 8.72586 | 757 ft | 24 kts | 199° |
| 2026-05-05 20:11 | 45.63727 | 8.72628 | 756 ft | 24 kts | 169° |
| 2026-05-05 20:12 | 45.63562 | 8.72672 | 750 ft | 24 kts | 169° |
| 2026-05-05 20:12 | 45.63433 | 8.72682 | 748 ft | 15 kts | 210° |
| 2026-05-05 20:12 | 45.63397 | 8.72543 | 749 ft | 15 kts | 259° |
| 2026-05-05 20:12 | 45.63376 | 8.72398 | 749 ft | 15 kts | 259° |
| 2026-05-05 20:13 | 45.63356 | 8.72249 | 750 ft | 15 kts | 259° |
| 2026-05-05 20:13 | 45.63336 | 8.72100 | 751 ft | 15 kts | 259° |
| 2026-05-05 20:13 | 45.63283 | 8.71984 | 750 ft | 15 kts | 200° |
| 2026-05-05 20:13 | 45.63175 | 8.71998 | 746 ft | 16 kts | 169° |
| 2026-05-05 20:14 | 45.63066 | 8.72029 | 745 ft | 16 kts | 169° |
| 2026-05-05 20:14 | 45.62955 | 8.72059 | 742 ft | 17 kts | 168° |
| 2026-05-05 20:14 | 45.62833 | 8.72094 | 741 ft | 19 kts | 168° |
| 2026-05-05 20:14 | 45.62703 | 8.72129 | 739 ft | 19 kts | 168° |
| 2026-05-05 20:15 | 45.62563 | 8.72168 | 736 ft | 21 kts | 169° |
| 2026-05-05 20:15 | 45.62417 | 8.72207 | 736 ft | 22 kts | 169° |
| 2026-05-05 20:15 | 45.62340 | 8.72229 | 735 ft | 8 kts | 169° |
| 2026-05-05 20:15 | 45.62300 | 8.72240 | 734 ft | 0 kts | 169° |
| 2026-05-05 20:16 | 45.62296 | 8.72241 | 734 ft | 2 kts | 169° |
| 2026-05-05 20:16 | 45.62259 | 8.72249 | 733 ft | 10 kts | 177° |
| 2026-05-05 20:16 | 45.62201 | 8.72150 | 732 ft | 18 kts | 257° |
| 2026-05-05 20:17 | 45.62158 | 8.71983 | 734 ft | 19 kts | 211° |
| 2026-05-05 20:17 | 45.62031 | 8.72003 | 730 ft | 19 kts | 169° |
| 2026-05-05 20:17 | 45.61920 | 8.72015 | 728 ft | 13 kts | 208° |
| 2026-05-05 20:17 | 45.61900 | 8.71903 | 726 ft | 0 kts | 259° |